createdAt,value
2024-01-26T00:00:05.954Z,968.8600
2024-01-26T00:00:17.022Z,968.8600
2024-01-26T00:00:28.172Z,968.8800
2024-01-26T00:00:39.294Z,968.8600
2024-01-26T00:00:50.614Z,968.8600
2024-01-26T00:01:02.366Z,968.8400
2024-01-26T00:01:13.895Z,968.8400
2024-01-26T00:01:25.162Z,968.8400
2024-01-26T00:01:36.668Z,968.8200
2024-01-26T00:01:47.779Z,968.8200
2024-01-26T00:01:58.924Z,968.8200
2024-01-26T00:02:09.976Z,968.8000
2024-01-26T00:02:21.025Z,968.8000
2024-01-26T00:02:32.248Z,968.8200
2024-01-26T00:02:43.745Z,968.8200
2024-01-26T00:02:55.234Z,968.8000
2024-01-26T00:03:06.337Z,968.8200
2024-01-26T00:03:17.439Z,968.8200
2024-01-26T00:03:28.619Z,968.8000
2024-01-26T00:03:40.151Z,968.8000
2024-01-26T00:03:51.646Z,968.8000
2024-01-26T00:04:03.800Z,968.8000
2024-01-26T00:04:15.386Z,968.8000
2024-01-26T00:04:26.689Z,968.8000
2024-01-26T00:04:38.209Z,968.8000
2024-01-26T00:04:49.934Z,968.8000
2024-01-26T00:05:01.247Z,968.8000
2024-01-26T00:05:12.444Z,968.8200
2024-01-26T00:05:23.508Z,968.8200
2024-01-26T00:05:34.562Z,968.8400
2024-01-26T00:05:45.748Z,968.8400
2024-01-26T00:05:56.900Z,968.8400
2024-01-26T00:06:08.118Z,968.8200
2024-01-26T00:06:19.590Z,968.8200
2024-01-26T00:06:30.998Z,968.8200
2024-01-26T00:06:42.974Z,968.8200
2024-01-26T00:06:55.673Z,968.8200
2024-01-26T00:07:06.918Z,968.8200
2024-01-26T00:07:18.110Z,968.8200
2024-01-26T00:07:29.306Z,968.8200
2024-01-26T00:07:40.635Z,968.8200
2024-01-26T00:07:51.860Z,968.8000
2024-01-26T00:08:02.910Z,968.8000
2024-01-26T00:08:13.939Z,968.8000
2024-01-26T00:08:24.995Z,968.8000
2024-01-26T00:08:36.051Z,968.8200
2024-01-26T00:08:47.117Z,968.8200
2024-01-26T00:08:58.169Z,968.8400
2024-01-26T00:09:09.224Z,968.8400
2024-01-26T00:09:20.319Z,968.8400
2024-01-26T00:09:31.411Z,968.8200
2024-01-26T00:09:42.492Z,968.8200
2024-01-26T00:09:53.653Z,968.8400
2024-01-26T00:10:04.892Z,968.8400
2024-01-26T00:10:15.971Z,968.8400
2024-01-26T00:10:27.006Z,968.8400
2024-01-26T00:10:38.067Z,968.8400
2024-01-26T00:10:49.120Z,968.8400
2024-01-26T00:11:00.193Z,968.8400
2024-01-26T00:11:11.222Z,968.8200
2024-01-26T00:11:22.291Z,968.8200
2024-01-26T00:11:33.369Z,968.8400
2024-01-26T00:11:44.443Z,968.8400
2024-01-26T00:11:55.562Z,968.8400
2024-01-26T00:12:06.644Z,968.8200
2024-01-26T00:12:17.809Z,968.8200
2024-01-26T00:12:28.899Z,968.8600
2024-01-26T00:12:39.968Z,968.8400
2024-01-26T00:12:51.020Z,968.8400
2024-01-26T00:13:02.075Z,968.8200
2024-01-26T00:13:13.145Z,968.8200
2024-01-26T00:13:24.201Z,968.8400
2024-01-26T00:13:35.254Z,968.8400
2024-01-26T00:13:46.306Z,968.8400
2024-01-26T00:13:57.423Z,968.8400
2024-01-26T00:14:08.480Z,968.8400
2024-01-26T00:14:19.506Z,968.8400
2024-01-26T00:14:30.584Z,968.8600
2024-01-26T00:14:41.663Z,968.8800
2024-01-26T00:14:52.713Z,968.8800
2024-01-26T00:15:03.784Z,968.9000
2024-01-26T00:15:14.845Z,968.8600
2024-01-26T00:15:25.940Z,968.8800
2024-01-26T00:15:37.024Z,968.8800
2024-01-26T00:15:48.090Z,968.9000
2024-01-26T00:15:59.245Z,968.8800
2024-01-26T00:16:11.112Z,968.9000
2024-01-26T00:16:22.172Z,968.9000
2024-01-26T00:16:33.229Z,968.8800
2024-01-26T00:16:44.264Z,968.8800
2024-01-26T00:16:55.338Z,968.8600
2024-01-26T00:17:06.406Z,968.8600
2024-01-26T00:17:17.451Z,968.8600
2024-01-26T00:17:28.527Z,968.8600
2024-01-26T00:17:39.584Z,968.8600
2024-01-26T00:17:50.604Z,968.8400
2024-01-26T00:18:01.672Z,968.8400
2024-01-26T00:18:12.764Z,968.8600
2024-01-26T00:18:23.915Z,968.8800
2024-01-26T00:18:35.117Z,968.8600
2024-01-26T00:18:46.163Z,968.8600
2024-01-26T00:18:57.287Z,968.8600
2024-01-26T00:19:08.517Z,968.8600
2024-01-26T00:19:19.899Z,968.8600
2024-01-26T00:19:30.976Z,968.8800
2024-01-26T00:19:42.039Z,968.8800
2024-01-26T00:19:53.116Z,968.8800
2024-01-26T00:20:04.164Z,968.8800
2024-01-26T00:20:15.230Z,968.8800
2024-01-26T00:20:27.433Z,968.8800
2024-01-26T00:20:39.243Z,968.8800
2024-01-26T00:20:50.299Z,968.8800
2024-01-26T00:21:01.340Z,968.9000
2024-01-26T00:21:12.383Z,968.8800
2024-01-26T00:21:23.463Z,968.8800
2024-01-26T00:21:34.598Z,968.9000
2024-01-26T00:21:45.659Z,968.9000
2024-01-26T00:21:56.728Z,968.9000
2024-01-26T00:22:07.796Z,968.9000
2024-01-26T00:22:18.839Z,968.9000
2024-01-26T00:22:29.891Z,968.9200
2024-01-26T00:22:40.945Z,968.9200
2024-01-26T00:22:52.011Z,968.9200
2024-01-26T00:23:03.451Z,968.9200
2024-01-26T00:23:14.505Z,968.9000
2024-01-26T00:23:25.553Z,968.9000
2024-01-26T00:23:36.624Z,968.9000
2024-01-26T00:23:47.678Z,968.8800
2024-01-26T00:23:58.717Z,968.9000
2024-01-26T00:24:09.796Z,968.8800
2024-01-26T00:24:23.129Z,968.8600
2024-01-26T00:24:35.341Z,968.8800
2024-01-26T00:24:46.437Z,968.8800
2024-01-26T00:24:58.133Z,968.8600
2024-01-26T00:25:09.229Z,968.8400
2024-01-26T00:25:20.346Z,968.8400
2024-01-26T00:25:31.399Z,968.8400
2024-01-26T00:25:42.439Z,968.8600
2024-01-26T00:25:53.528Z,968.8600
2024-01-26T00:26:04.590Z,968.8400
2024-01-26T00:26:15.636Z,968.8200
2024-01-26T00:26:26.715Z,968.8800
2024-01-26T00:26:37.736Z,968.8400
2024-01-26T00:26:48.786Z,968.8600
2024-01-26T00:26:59.842Z,968.8400
2024-01-26T00:27:10.904Z,968.8400
2024-01-26T00:27:21.993Z,968.8600
2024-01-26T00:27:33.067Z,968.8600
2024-01-26T00:27:44.141Z,968.8600
2024-01-26T00:27:55.394Z,968.8600
2024-01-26T00:28:06.461Z,968.8600
2024-01-26T00:28:17.504Z,968.8600
2024-01-26T00:28:28.569Z,968.8400
2024-01-26T00:28:39.627Z,968.8400
2024-01-26T00:28:50.676Z,968.8600
2024-01-26T00:29:01.734Z,968.8600
2024-01-26T00:29:12.784Z,968.8600
2024-01-26T00:29:23.901Z,968.8400
2024-01-26T00:29:34.956Z,968.8600
2024-01-26T00:29:46.038Z,968.8600
2024-01-26T00:29:57.080Z,968.8600
2024-01-26T00:30:08.168Z,968.8600
2024-01-26T00:30:19.545Z,968.8800
2024-01-26T00:30:30.928Z,968.8800
2024-01-26T00:30:42.008Z,968.8800
2024-01-26T00:30:53.104Z,968.8800
2024-01-26T00:31:04.269Z,968.9000
2024-01-26T00:31:15.399Z,968.8800
2024-01-26T00:31:26.461Z,968.8800
2024-01-26T00:31:37.517Z,968.8800
2024-01-26T00:31:48.544Z,968.9000
2024-01-26T00:31:59.594Z,968.9200
2024-01-26T00:32:10.693Z,968.9000
2024-01-26T00:32:21.732Z,968.9000
2024-01-26T00:32:32.829Z,968.9200
2024-01-26T00:32:43.953Z,968.9200
2024-01-26T00:32:55.016Z,968.9200
2024-01-26T00:33:06.126Z,968.9200
2024-01-26T00:33:17.258Z,968.9200
2024-01-26T00:33:28.366Z,968.9200
2024-01-26T00:33:39.525Z,968.9200
2024-01-26T00:33:50.641Z,968.9200
2024-01-26T00:34:02.230Z,968.9000
2024-01-26T00:34:13.405Z,968.9200
2024-01-26T00:34:24.527Z,968.9000
2024-01-26T00:34:35.837Z,968.9000
2024-01-26T00:34:47.167Z,968.9000
2024-01-26T00:34:58.343Z,968.9000
2024-01-26T00:35:09.505Z,968.9000
2024-01-26T00:35:20.627Z,968.9000
2024-01-26T00:35:31.694Z,968.9000
2024-01-26T00:35:42.758Z,968.9200
2024-01-26T00:35:53.806Z,968.9000
2024-01-26T00:36:04.861Z,968.9000
2024-01-26T00:36:15.978Z,968.9000
2024-01-26T00:36:27.087Z,968.9200
2024-01-26T00:36:38.147Z,968.9000
2024-01-26T00:36:49.217Z,968.9200
2024-01-26T00:37:00.341Z,968.9200
2024-01-26T00:37:11.481Z,968.9400
2024-01-26T00:37:22.589Z,968.9400
2024-01-26T00:37:33.624Z,968.9400
2024-01-26T00:37:44.676Z,968.9400
2024-01-26T00:37:55.731Z,968.9400
2024-01-26T00:38:06.793Z,968.9600
2024-01-26T00:38:17.854Z,968.9600
2024-01-26T00:38:28.906Z,968.9600
2024-01-26T00:38:39.957Z,968.9600
2024-01-26T00:38:51.008Z,968.9800
2024-01-26T00:39:02.064Z,968.9800
2024-01-26T00:39:13.148Z,969.0000
2024-01-26T00:39:24.219Z,968.9800
2024-01-26T00:39:35.352Z,968.9800
2024-01-26T00:39:46.428Z,969.0000
2024-01-26T00:39:57.632Z,969.0000
2024-01-26T00:40:08.761Z,969.0100
2024-01-26T00:40:19.828Z,969.0100
2024-01-26T00:40:30.892Z,969.0100
2024-01-26T00:40:41.969Z,968.9800
2024-01-26T00:40:53.033Z,969.0000
2024-01-26T00:41:04.063Z,969.0100
2024-01-26T00:41:15.114Z,969.0100
2024-01-26T00:41:26.178Z,969.0000
2024-01-26T00:41:37.220Z,969.0000
2024-01-26T00:41:48.282Z,969.0000
2024-01-26T00:41:59.352Z,969.0100
2024-01-26T00:42:10.441Z,969.0000
2024-01-26T00:42:21.466Z,969.0000
2024-01-26T00:42:32.552Z,969.0000
2024-01-26T00:42:43.654Z,969.0000
2024-01-26T00:42:54.763Z,969.0000
2024-01-26T00:43:05.891Z,969.0100
2024-01-26T00:43:17.001Z,969.0100
2024-01-26T00:43:28.015Z,969.0000
2024-01-26T00:43:39.127Z,969.0000
2024-01-26T00:43:50.181Z,969.0000
2024-01-26T00:44:01.247Z,969.0100
2024-01-26T00:44:12.309Z,969.0000
2024-01-26T00:44:23.365Z,969.0100
2024-01-26T00:44:34.421Z,969.0100
2024-01-26T00:44:45.486Z,969.0300
2024-01-26T00:44:56.555Z,969.0100
2024-01-26T00:45:07.629Z,969.0100
2024-01-26T00:45:18.999Z,969.0300
2024-01-26T00:45:30.186Z,969.0100
2024-01-26T00:45:41.255Z,969.0100
2024-01-26T00:45:52.362Z,969.0300
2024-01-26T00:46:03.642Z,969.0300
2024-01-26T00:46:14.921Z,969.0100
2024-01-26T00:46:25.987Z,969.0100
2024-01-26T00:46:37.035Z,969.0100
2024-01-26T00:46:48.122Z,969.0000
2024-01-26T00:46:59.186Z,969.0000
2024-01-26T00:47:10.240Z,969.0000
2024-01-26T00:47:21.320Z,969.0000
2024-01-26T00:47:32.375Z,969.0000
2024-01-26T00:47:43.543Z,968.9800
2024-01-26T00:47:54.634Z,968.9800
2024-01-26T00:48:05.838Z,968.9800
2024-01-26T00:48:17.025Z,968.9600
2024-01-26T00:48:28.166Z,968.9600
2024-01-26T00:48:42.031Z,968.9800
2024-01-26T00:48:53.568Z,968.9600
2024-01-26T00:49:05.261Z,968.9600
2024-01-26T00:49:16.400Z,968.9600
2024-01-26T00:49:34.562Z,968.9600
2024-01-26T00:49:49.411Z,968.9600
2024-01-26T00:50:01.469Z,968.9800
2024-01-26T00:50:12.737Z,968.9600
2024-01-26T00:50:24.279Z,968.9800
2024-01-26T00:50:35.513Z,968.9600
2024-01-26T00:50:46.590Z,968.9800
2024-01-26T00:50:57.654Z,968.9800
2024-01-26T00:51:08.682Z,968.9600
2024-01-26T00:51:19.809Z,968.9600
2024-01-26T00:51:30.904Z,968.9600
2024-01-26T00:51:41.958Z,969.0000
2024-01-26T00:51:53.040Z,968.9800
2024-01-26T00:52:04.686Z,969.0000
2024-01-26T00:52:15.720Z,969.0000
2024-01-26T00:52:26.751Z,969.0000
2024-01-26T00:52:37.794Z,969.0000
2024-01-26T00:52:48.847Z,969.0000
2024-01-26T00:52:59.887Z,969.0000
2024-01-26T00:53:10.930Z,969.0100
2024-01-26T00:53:21.984Z,969.0000
2024-01-26T00:53:33.034Z,969.0100
2024-01-26T00:53:44.096Z,969.0100
2024-01-26T00:53:55.141Z,969.0100
2024-01-26T00:54:06.226Z,969.0300
2024-01-26T00:54:17.270Z,969.0300
2024-01-26T00:54:28.337Z,969.0100
2024-01-26T00:54:39.470Z,969.0300
2024-01-26T00:54:50.543Z,969.0100
2024-01-26T00:55:01.757Z,969.0000
2024-01-26T00:55:13.200Z,969.0000
2024-01-26T00:55:24.262Z,969.0000
2024-01-26T00:55:35.296Z,969.0000
2024-01-26T00:55:46.371Z,968.9800
2024-01-26T00:55:57.436Z,968.9800
2024-01-26T00:56:08.518Z,968.9800
2024-01-26T00:56:19.561Z,968.9800
2024-01-26T00:56:30.595Z,968.9800
2024-01-26T00:56:41.639Z,968.9800
2024-01-26T00:56:52.705Z,968.9800
2024-01-26T00:57:03.915Z,968.9800
2024-01-26T00:57:14.987Z,968.9800
2024-01-26T00:57:26.061Z,968.9600
2024-01-26T00:57:37.122Z,968.9800
2024-01-26T00:57:48.187Z,968.9600
2024-01-26T00:57:59.280Z,968.9600
2024-01-26T00:58:10.435Z,968.9600
2024-01-26T00:58:21.500Z,968.9600
2024-01-26T00:58:32.566Z,968.9600
2024-01-26T00:58:43.604Z,968.9600
2024-01-26T00:58:54.676Z,968.9600
2024-01-26T00:59:05.724Z,968.9600
2024-01-26T00:59:16.772Z,968.9400
2024-01-26T00:59:27.814Z,968.9400
2024-01-26T00:59:38.879Z,968.9400
2024-01-26T00:59:49.954Z,968.9400
2024-01-26T01:00:00.986Z,968.9400
2024-01-26T01:00:12.056Z,968.9600
2024-01-26T01:00:23.160Z,968.9400
2024-01-26T01:00:34.439Z,968.9400
2024-01-26T01:00:45.508Z,968.9400
2024-01-26T01:00:56.580Z,968.9600
2024-01-26T01:01:07.755Z,968.9800
2024-01-26T01:01:18.920Z,968.9600
2024-01-26T01:01:30.217Z,968.9600
2024-01-26T01:01:41.371Z,968.9600
2024-01-26T01:01:52.572Z,968.9600
2024-01-26T01:02:03.890Z,968.9800
2024-01-26T01:02:15.310Z,968.9800
2024-01-26T01:02:26.390Z,969.0000
2024-01-26T01:02:37.428Z,969.0000
2024-01-26T01:02:48.527Z,968.9800
2024-01-26T01:02:59.604Z,969.0000
2024-01-26T01:03:10.707Z,969.0000
2024-01-26T01:03:21.855Z,968.9800
2024-01-26T01:03:32.951Z,968.9800
2024-01-26T01:03:43.996Z,968.9800
2024-01-26T01:03:55.061Z,969.0000
2024-01-26T01:04:06.139Z,969.0000
2024-01-26T01:04:17.220Z,969.0000
2024-01-26T01:04:28.262Z,969.0000
2024-01-26T01:04:39.332Z,969.0000
2024-01-26T01:04:50.381Z,969.0100
2024-01-26T01:05:01.538Z,969.0100
2024-01-26T01:05:12.647Z,969.0100
2024-01-26T01:05:23.876Z,969.0000
2024-01-26T01:05:35.007Z,969.0000
2024-01-26T01:05:46.181Z,969.0000
2024-01-26T01:05:57.708Z,969.0100
2024-01-26T01:06:08.882Z,969.0000
2024-01-26T01:06:20.000Z,969.0000
2024-01-26T01:06:31.075Z,969.0000
2024-01-26T01:06:42.165Z,969.0000
2024-01-26T01:06:53.265Z,969.0000
2024-01-26T01:07:04.372Z,969.0100
2024-01-26T01:07:15.424Z,969.0000
2024-01-26T01:07:26.485Z,969.0000
2024-01-26T01:07:37.572Z,969.0100
2024-01-26T01:07:48.601Z,969.0100
2024-01-26T01:07:59.630Z,969.0000
2024-01-26T01:08:10.671Z,969.0100
2024-01-26T01:08:21.744Z,969.0000
2024-01-26T01:08:32.825Z,969.0000
2024-01-26T01:08:43.875Z,969.0000
2024-01-26T01:08:54.997Z,969.0000
2024-01-26T01:09:06.137Z,969.0000
2024-01-26T01:09:17.171Z,969.0000
2024-01-26T01:09:28.211Z,969.0000
2024-01-26T01:09:39.273Z,969.0100
2024-01-26T01:09:50.310Z,969.0100
2024-01-26T01:10:01.407Z,969.0100
2024-01-26T01:10:12.468Z,969.0100
2024-01-26T01:10:23.492Z,969.0000
2024-01-26T01:10:34.573Z,969.0000
2024-01-26T01:10:45.628Z,969.0000
2024-01-26T01:10:56.675Z,969.0000
2024-01-26T01:11:07.709Z,969.0100
2024-01-26T01:11:18.921Z,969.0000
2024-01-26T01:11:29.996Z,969.0100
2024-01-26T01:11:41.030Z,969.0100
2024-01-26T01:11:52.127Z,969.0000
2024-01-26T01:12:03.255Z,969.0100
2024-01-26T01:12:14.372Z,969.0300
2024-01-26T01:12:25.431Z,969.0300
2024-01-26T01:12:36.496Z,969.0300
2024-01-26T01:12:47.546Z,969.0300
2024-01-26T01:12:58.601Z,969.0300
2024-01-26T01:13:09.652Z,969.0300
2024-01-26T01:13:20.690Z,969.0300
2024-01-26T01:13:31.765Z,969.0300
2024-01-26T01:13:42.869Z,969.0300
2024-01-26T01:13:53.890Z,969.0300
2024-01-26T01:14:04.949Z,969.0700
2024-01-26T01:14:16.000Z,969.0300
2024-01-26T01:14:27.096Z,969.0300
2024-01-26T01:14:38.319Z,969.0500
2024-01-26T01:14:49.438Z,969.0300
2024-01-26T01:15:00.556Z,969.0500
2024-01-26T01:15:11.639Z,969.0300
2024-01-26T01:15:22.698Z,969.0500
2024-01-26T01:15:33.748Z,969.0500
2024-01-26T01:15:44.862Z,969.0300
2024-01-26T01:15:55.900Z,969.0300
2024-01-26T01:16:06.965Z,969.0100
2024-01-26T01:16:18.031Z,969.0100
2024-01-26T01:16:29.075Z,969.0300
2024-01-26T01:16:40.110Z,969.0300
2024-01-26T01:16:51.178Z,969.0300
2024-01-26T01:17:02.244Z,969.0300
2024-01-26T01:17:13.311Z,969.0100
2024-01-26T01:17:24.349Z,969.0300
2024-01-26T01:17:35.425Z,969.0300
2024-01-26T01:17:46.632Z,969.0300
2024-01-26T01:17:57.791Z,969.0100
2024-01-26T01:18:09.078Z,969.0300
2024-01-26T01:18:20.459Z,969.0100
2024-01-26T01:18:31.736Z,969.0100
2024-01-26T01:18:43.212Z,969.0300
2024-01-26T01:18:54.771Z,969.0100
2024-01-26T01:19:06.388Z,969.0100
2024-01-26T01:19:17.712Z,969.0300
2024-01-26T01:19:28.834Z,969.0300
2024-01-26T01:19:39.995Z,969.0100
2024-01-26T01:19:51.068Z,969.0000
2024-01-26T01:20:02.120Z,968.9800
2024-01-26T01:20:13.988Z,969.0100
2024-01-26T01:20:25.080Z,969.0000
2024-01-26T01:20:36.209Z,968.9800
2024-01-26T01:20:47.373Z,968.9800
2024-01-26T01:20:58.455Z,969.0000
2024-01-26T01:21:09.513Z,968.9600
2024-01-26T01:21:20.539Z,968.9600
2024-01-26T01:21:31.631Z,968.9600
2024-01-26T01:21:42.650Z,968.9600
2024-01-26T01:21:53.710Z,968.9800
2024-01-26T01:22:04.772Z,969.0000
2024-01-26T01:22:15.852Z,969.0000
2024-01-26T01:22:26.894Z,969.0000
2024-01-26T01:22:37.945Z,968.9800
2024-01-26T01:22:49.100Z,968.9800
2024-01-26T01:23:00.156Z,968.9800
2024-01-26T01:23:11.221Z,969.0000
2024-01-26T01:23:22.296Z,969.0000
2024-01-26T01:23:33.391Z,969.0000
2024-01-26T01:23:44.490Z,969.0100
2024-01-26T01:23:55.633Z,969.0100
2024-01-26T01:24:06.799Z,969.0000
2024-01-26T01:24:17.903Z,969.0100
2024-01-26T01:24:28.965Z,969.0100
2024-01-26T01:24:40.024Z,969.0100
2024-01-26T01:24:51.062Z,969.0300
2024-01-26T01:25:02.142Z,969.0300
2024-01-26T01:25:13.197Z,969.0500
2024-01-26T01:25:24.283Z,969.0500
2024-01-26T01:25:35.336Z,969.0500
2024-01-26T01:25:46.456Z,969.0500
2024-01-26T01:25:57.528Z,969.0500
2024-01-26T01:26:08.601Z,969.0500
2024-01-26T01:26:19.668Z,969.0500
2024-01-26T01:26:30.746Z,969.0500
2024-01-26T01:26:41.823Z,969.0500
2024-01-26T01:26:52.905Z,969.0500
2024-01-26T01:27:04.157Z,969.0700
2024-01-26T01:27:15.387Z,969.0700
2024-01-26T01:27:26.435Z,969.0700
2024-01-26T01:27:37.487Z,969.0700
2024-01-26T01:27:48.557Z,969.0700
2024-01-26T01:27:59.614Z,969.0500
2024-01-26T01:28:10.664Z,969.0700
2024-01-26T01:28:21.716Z,969.0700
2024-01-26T01:28:32.757Z,969.0700
2024-01-26T01:28:43.791Z,969.0700
2024-01-26T01:28:54.847Z,969.0900
2024-01-26T01:29:05.987Z,969.0700
2024-01-26T01:29:16.977Z,969.0500
2024-01-26T01:29:28.072Z,969.0900
2024-01-26T01:29:39.154Z,969.0900
2024-01-26T01:29:50.237Z,969.0900
2024-01-26T01:30:01.395Z,969.0700
2024-01-26T01:30:12.591Z,969.0900
2024-01-26T01:30:23.693Z,969.0700
2024-01-26T01:30:34.740Z,969.0900
2024-01-26T01:30:45.786Z,969.0700
2024-01-26T01:30:56.820Z,969.0700
2024-01-26T01:31:07.918Z,969.0500
2024-01-26T01:31:19.015Z,969.0900
2024-01-26T01:31:30.065Z,969.0700
2024-01-26T01:31:41.108Z,969.0700
2024-01-26T01:31:52.151Z,969.0700
2024-01-26T01:32:03.261Z,969.0700
2024-01-26T01:32:14.255Z,969.0300
2024-01-26T01:32:25.326Z,969.0100
2024-01-26T01:32:36.586Z,969.0100
2024-01-26T01:32:47.949Z,969.0300
2024-01-26T01:32:59.031Z,969.0300
2024-01-26T01:33:10.230Z,969.0500
2024-01-26T01:33:21.385Z,969.0500
2024-01-26T01:33:32.639Z,969.0500
2024-01-26T01:33:43.978Z,969.0300
2024-01-26T01:33:55.193Z,969.0300
2024-01-26T01:34:07.030Z,969.0300
2024-01-26T01:34:18.288Z,969.0300
2024-01-26T01:34:29.397Z,969.0300
2024-01-26T01:34:40.481Z,969.0300
2024-01-26T01:34:51.543Z,969.0300
2024-01-26T01:35:02.601Z,969.0500
2024-01-26T01:35:13.639Z,969.0500
2024-01-26T01:35:24.702Z,969.0500
2024-01-26T01:35:35.788Z,969.0300
2024-01-26T01:35:46.873Z,969.0300
2024-01-26T01:35:57.979Z,969.0500
2024-01-26T01:36:09.110Z,969.0500
2024-01-26T01:36:20.176Z,969.0700
2024-01-26T01:36:31.217Z,969.0700
2024-01-26T01:36:42.259Z,969.0700
2024-01-26T01:36:53.306Z,969.0700
2024-01-26T01:37:04.355Z,969.0900
2024-01-26T01:37:15.380Z,969.1100
2024-01-26T01:37:26.437Z,969.1100
2024-01-26T01:37:37.482Z,969.1100
2024-01-26T01:37:48.544Z,969.1300
2024-01-26T01:37:59.594Z,969.1300
2024-01-26T01:38:10.622Z,969.1100
2024-01-26T01:38:21.669Z,969.1100
2024-01-26T01:38:32.733Z,969.1100
2024-01-26T01:38:43.811Z,969.0900
2024-01-26T01:38:54.854Z,969.0900
2024-01-26T01:39:06.013Z,969.1100
2024-01-26T01:39:17.167Z,969.1100
2024-01-26T01:39:28.212Z,969.1100
2024-01-26T01:39:39.281Z,969.0900
2024-01-26T01:39:50.338Z,969.1100
2024-01-26T01:40:01.392Z,969.1100
2024-01-26T01:40:12.433Z,969.1300
2024-01-26T01:40:23.478Z,969.1300
2024-01-26T01:40:34.529Z,969.1300
2024-01-26T01:40:45.583Z,969.1100
2024-01-26T01:40:56.645Z,969.1300
2024-01-26T01:41:07.681Z,969.1300
2024-01-26T01:41:18.772Z,969.1300
2024-01-26T01:41:29.818Z,969.1300
2024-01-26T01:41:40.908Z,969.1300
2024-01-26T01:41:51.966Z,969.1100
2024-01-26T01:42:03.154Z,969.1100
2024-01-26T01:42:14.204Z,969.1100
2024-01-26T01:42:25.261Z,969.1100
2024-01-26T01:42:36.317Z,969.1300
2024-01-26T01:42:47.371Z,969.1100
2024-01-26T01:42:58.430Z,969.1300
2024-01-26T01:43:09.487Z,969.1100
2024-01-26T01:43:20.529Z,969.1100
2024-01-26T01:43:31.612Z,969.1100
2024-01-26T01:43:42.663Z,969.1100
2024-01-26T01:43:53.721Z,969.1100
2024-01-26T01:44:04.812Z,969.1100
2024-01-26T01:44:15.862Z,969.1100
2024-01-26T01:44:26.974Z,969.1100
2024-01-26T01:44:38.040Z,969.1100
2024-01-26T01:44:49.148Z,969.1100
2024-01-26T01:45:00.330Z,969.0900
2024-01-26T01:45:11.475Z,969.0900
2024-01-26T01:45:22.537Z,969.0900
2024-01-26T01:45:33.599Z,969.0900
2024-01-26T01:45:44.636Z,969.0900
2024-01-26T01:45:55.681Z,969.0900
2024-01-26T01:46:06.760Z,969.0900
2024-01-26T01:46:17.802Z,969.0900
2024-01-26T01:46:28.897Z,969.0900
2024-01-26T01:46:39.946Z,969.0900
2024-01-26T01:46:50.985Z,969.0700
2024-01-26T01:47:03.232Z,969.0700
2024-01-26T01:47:14.276Z,969.0900
2024-01-26T01:47:25.326Z,969.0900
2024-01-26T01:47:36.431Z,969.0700
2024-01-26T01:47:47.553Z,969.0900
2024-01-26T01:47:58.993Z,969.0900
2024-01-26T01:48:10.253Z,969.0900
2024-01-26T01:48:21.654Z,969.0700
2024-01-26T01:48:32.929Z,969.0900
2024-01-26T01:48:44.219Z,969.0900
2024-01-26T01:48:55.901Z,969.0900
2024-01-26T01:49:07.179Z,969.1100
2024-01-26T01:49:18.335Z,969.1100
2024-01-26T01:49:29.425Z,969.0900
2024-01-26T01:49:40.604Z,969.0900
2024-01-26T01:49:51.730Z,969.0900
2024-01-26T01:50:02.778Z,969.0900
2024-01-26T01:50:13.812Z,969.0900
2024-01-26T01:50:24.865Z,969.0900
2024-01-26T01:50:35.959Z,969.1100
2024-01-26T01:50:47.098Z,969.0700
2024-01-26T01:50:58.167Z,969.0700
2024-01-26T01:51:09.257Z,969.0700
2024-01-26T01:51:20.319Z,969.0700
2024-01-26T01:51:31.447Z,969.0900
2024-01-26T01:51:42.557Z,969.0900
2024-01-26T01:51:53.582Z,969.0900
2024-01-26T01:52:04.642Z,969.0700
2024-01-26T01:52:15.686Z,969.0700
2024-01-26T01:52:26.751Z,969.0700
2024-01-26T01:52:37.814Z,969.0700
2024-01-26T01:52:48.884Z,969.0700
2024-01-26T01:52:59.929Z,969.0700
2024-01-26T01:53:10.975Z,969.0700
2024-01-26T01:53:22.035Z,969.0500
2024-01-26T01:53:33.123Z,969.0500
2024-01-26T01:53:44.238Z,969.0500
2024-01-26T01:53:55.264Z,969.0700
2024-01-26T01:54:06.349Z,969.0700
2024-01-26T01:54:17.392Z,969.0700
2024-01-26T01:54:28.451Z,969.0700
2024-01-26T01:54:39.507Z,969.0500
2024-01-26T01:54:50.575Z,969.0500
2024-01-26T01:55:03.382Z,969.0500
2024-01-26T01:55:15.071Z,969.0500
2024-01-26T01:55:26.112Z,969.0700
2024-01-26T01:55:37.152Z,969.0700
2024-01-26T01:55:48.213Z,969.0700
2024-01-26T01:55:59.267Z,969.0500
2024-01-26T01:56:10.317Z,969.0500
2024-01-26T01:56:21.406Z,969.0700
2024-01-26T01:56:32.507Z,969.0900
2024-01-26T01:56:43.608Z,969.0700
2024-01-26T01:56:54.723Z,969.0900
2024-01-26T01:57:05.879Z,969.0700
2024-01-26T01:57:16.999Z,969.0700
2024-01-26T01:57:28.048Z,969.0700
2024-01-26T01:57:39.095Z,969.0500
2024-01-26T01:57:50.134Z,969.0900
2024-01-26T01:58:01.191Z,969.0700
2024-01-26T01:58:12.244Z,969.0700
2024-01-26T01:58:23.297Z,969.0700
2024-01-26T01:58:34.354Z,969.0700
2024-01-26T01:58:45.414Z,969.0500
2024-01-26T01:58:56.476Z,969.0500
2024-01-26T01:59:07.548Z,969.0500
2024-01-26T01:59:18.626Z,969.0700
2024-01-26T01:59:29.681Z,969.0700
2024-01-26T01:59:40.791Z,969.0500
2024-01-26T01:59:51.891Z,969.0500
2024-01-26T02:00:03.038Z,969.0300
2024-01-26T02:00:14.138Z,969.0300
2024-01-26T02:00:25.191Z,969.0300
2024-01-26T02:00:36.479Z,969.0500
2024-01-26T02:00:48.010Z,969.0500
2024-01-26T02:00:59.448Z,969.0500
2024-01-26T02:01:11.028Z,969.0300
2024-01-26T02:01:22.170Z,969.0300
2024-01-26T02:01:33.308Z,969.0500
2024-01-26T02:01:44.489Z,969.0500
2024-01-26T02:01:55.586Z,969.0700
2024-01-26T02:02:06.651Z,969.0700
2024-01-26T02:02:17.714Z,969.0500
2024-01-26T02:02:28.765Z,969.0700
2024-01-26T02:02:39.886Z,969.0500
2024-01-26T02:02:50.961Z,969.0700
2024-01-26T02:03:02.040Z,969.0700
2024-01-26T02:03:13.096Z,969.0700
2024-01-26T02:03:24.121Z,969.0700
2024-01-26T02:03:35.180Z,969.0700
2024-01-26T02:03:46.238Z,969.0500
2024-01-26T02:03:57.306Z,969.0700
2024-01-26T02:04:08.339Z,969.0700
2024-01-26T02:04:19.475Z,969.0500
2024-01-26T02:04:30.554Z,969.0500
2024-01-26T02:04:41.631Z,969.0500
2024-01-26T02:04:52.898Z,969.0500
2024-01-26T02:05:04.260Z,969.0700
2024-01-26T02:05:15.545Z,969.0700
2024-01-26T02:05:26.917Z,969.0500
2024-01-26T02:05:38.129Z,969.0700
2024-01-26T02:05:49.258Z,969.0700
2024-01-26T02:06:00.478Z,969.0700
2024-01-26T02:06:11.699Z,969.0700
2024-01-26T02:06:22.975Z,969.0700
2024-01-26T02:06:34.280Z,969.0700
2024-01-26T02:06:45.374Z,969.0900
2024-01-26T02:06:56.428Z,969.0700
2024-01-26T02:07:07.479Z,969.0900
2024-01-26T02:07:18.530Z,969.0900
2024-01-26T02:07:29.626Z,969.0700
2024-01-26T02:07:40.666Z,969.0700
2024-01-26T02:07:51.824Z,969.0700
2024-01-26T02:08:03.072Z,969.0700
2024-01-26T02:08:14.125Z,969.0700
2024-01-26T02:08:25.177Z,969.0700
2024-01-26T02:08:36.247Z,969.0700
2024-01-26T02:08:47.312Z,969.0700
2024-01-26T02:08:58.420Z,969.0700
2024-01-26T02:09:09.602Z,969.0900
2024-01-26T02:09:20.641Z,969.0700
2024-01-26T02:09:31.703Z,969.0900
2024-01-26T02:09:42.758Z,969.0900
2024-01-26T02:09:53.786Z,969.0900
2024-01-26T02:10:04.855Z,969.0900
2024-01-26T02:10:15.897Z,969.0900
2024-01-26T02:10:26.952Z,969.0900
2024-01-26T02:10:38.012Z,969.0900
2024-01-26T02:10:49.091Z,969.1100
2024-01-26T02:11:00.152Z,969.1100